Time;durP1;ratioP1;P1;durP2;ratioP2;P2;SDS_P1;SDS_P2;PMS_P1;PMS_P2;Temp;Humidity;BMP_temperature;BMP_pressure;BME280_temperature;BME280_humidity;BME280_pressure;Samples;Min_cycle;Max_cycle;Signal;HPM_P1;HPM_P2
2024/03/22 00:02:23;;;;;;;8.27;5.00;;;;;;;;;;6219632;23;20050;-96
2024/03/22 00:04:48;;;;;;;10.90;5.13;;;;;;;;;;6219962;23;19996;-95
2024/03/22 00:07:14;;;;;;;7.20;4.85;;;;;;;;;;6219400;23;20012;-95
2024/03/22 00:09:39;;;;;;;9.13;4.60;;;;;;;;;;6219623;23;20474;-95
2024/03/22 00:12:04;;;;;;;8.02;4.57;;;;;;;;;;6220068;23;20065;-95
2024/03/22 00:14:29;;;;;;;7.63;4.10;;;;;;;;;;6219695;23;20084;-95
2024/03/22 00:16:55;;;;;;;7.75;4.05;;;;;;;;;;6218816;23;20000;-96
2024/03/22 00:19:20;;;;;;;9.88;4.45;;;;;;;;;;6219404;23;20437;-95
2024/03/22 00:21:45;;;;;;;8.65;4.95;;;;;;;;;;6219113;23;20017;-94
2024/03/22 00:24:10;;;;;;;6.50;4.28;;;;;;;;;;6218525;23;20366;-94
2024/03/22 00:26:36;;;;;;;10.50;4.63;;;;;;;;;;6218388;23;20079;-94
2024/03/22 00:29:01;;;;;;;6.82;4.88;;;;;;;;;;6219111;23;20461;-95
2024/03/22 00:31:26;;;;;;;8.90;4.85;;;;;;;;;;6218328;23;19996;-96
2024/03/22 00:33:52;;;;;;;9.15;5.45;;;;;;;;;;6218845;23;20004;-95
2024/03/22 00:36:17;;;;;;;7.07;4.47;;;;;;;;;;6218547;23;20000;-96
2024/03/22 00:38:42;;;;;;;8.53;5.10;;;;;;;;;;6218661;23;20275;-95
2024/03/22 00:41:07;;;;;;;9.93;5.10;;;;;;;;;;6218741;23;20299;-95
2024/03/22 00:43:32;;;;;;;10.60;5.22;;;;;;;;;;6218666;23;20275;-95
2024/03/22 00:45:58;;;;;;;7.38;4.65;;;;;;;;;;6218816;23;20009;-95
2024/03/22 00:48:23;;;;;;;7.70;4.82;;;;;;;;;;6218877;23;20008;-94
2024/03/22 00:50:49;;;;;;;8.75;4.43;;;;;;;;;;6218786;23;20075;-95
2024/03/22 00:53:14;;;;;;;7.50;4.33;;;;;;;;;;6218546;23;20423;-95
2024/03/22 00:55:39;;;;;;;9.40;4.85;;;;;;;;;;6218880;23;20226;-95
2024/03/22 00:58:04;;;;;;;7.90;4.95;;;;;;;;;;6218864;23;20383;-96
2024/03/22 01:00:29;;;;;;;8.88;5.57;;;;;;;;;;6218532;23;20023;-95
2024/03/22 01:02:55;;;;;;;11.43;4.90;;;;;;;;;;6218804;23;20425;-96
2024/03/22 01:05:20;;;;;;;15.77;5.47;;;;;;;;;;6219047;23;20699;-95
2024/03/22 01:07:45;;;;;;;7.85;4.43;;;;;;;;;;6218864;23;20244;-95
2024/03/22 01:10:11;;;;;;;8.48;5.15;;;;;;;;;;6218642;23;20000;-96
2024/03/22 01:12:36;;;;;;;8.30;4.22;;;;;;;;;;6218572;23;20474;-94
2024/03/22 01:15:02;;;;;;;8.15;4.65;;;;;;;;;;6218773;23;20329;-94
2024/03/22 01:17:27;;;;;;;9.00;4.82;;;;;;;;;;6218580;23;20007;-94
2024/03/22 01:19:52;;;;;;;14.85;4.53;;;;;;;;;;6218444;23;20039;-96
2024/03/22 01:22:18;;;;;;;10.00;5.00;;;;;;;;;;6218635;23;20011;-95
2024/03/22 01:24:43;;;;;;;5.50;3.92;;;;;;;;;;6218447;23;20214;-95
2024/03/22 01:27:08;;;;;;;8.20;4.90;;;;;;;;;;6218351;23;20073;-95
2024/03/22 01:29:33;;;;;;;7.53;3.80;;;;;;;;;;6218682;23;20000;-95
2024/03/22 01:31:59;;;;;;;7.18;4.53;;;;;;;;;;6218583;23;20253;-95
2024/03/22 01:34:24;;;;;;;8.50;4.23;;;;;;;;;;6218398;23;20031;-96
2024/03/22 01:36:49;;;;;;;6.18;4.50;;;;;;;;;;6218540;23;20233;-95
2024/03/22 01:39:15;;;;;;;7.53;4.50;;;;;;;;;;6218574;23;20000;-96
2024/03/22 01:41:41;;;;;;;11.30;4.72;;;;;;;;;;6218848;23;20331;-95
2024/03/22 01:44:06;;;;;;;8.90;4.75;;;;;;;;;;6220546;23;20035;-95
2024/03/22 01:46:31;;;;;;;7.63;4.53;;;;;;;;;;6220294;23;20497;-95
2024/03/22 01:48:56;;;;;;;9.17;5.13;;;;;;;;;;6247338;23;20331;-95
2024/03/22 01:51:21;;;;;;;10.63;4.70;;;;;;;;;;6219966;23;20696;-95
2024/03/22 01:53:47;;;;;;;11.48;5.18;;;;;;;;;;6220602;23;20331;-96
2024/03/22 01:56:12;;;;;;;7.18;4.85;;;;;;;;;;6220347;23;20038;-94
2024/03/22 01:58:38;;;;;;;7.55;4.63;;;;;;;;;;6220123;23;20007;-95
2024/03/22 02:01:03;;;;;;;9.55;4.72;;;;;;;;;;6219862;23;20383;-95
2024/03/22 02:03:29;;;;;;;11.60;4.78;;;;;;;;;;6220164;23;20006;-95
2024/03/22 02:05:54;;;;;;;13.90;4.55;;;;;;;;;;6219820;23;20000;-95
2024/03/22 02:08:19;;;;;;;8.17;4.33;;;;;;;;;;6219841;23;20574;-95
2024/03/22 02:10:45;;;;;;;11.60;5.53;;;;;;;;;;6219660;23;20679;-94
2024/03/22 02:13:10;;;;;;;10.13;4.68;;;;;;;;;;6219490;23;20000;-93
2024/03/22 02:15:35;;;;;;;13.40;5.63;;;;;;;;;;6219815;23;20087;-93
2024/03/22 02:18:00;;;;;;;10.63;4.72;;;;;;;;;;6246266;23;20304;-95
2024/03/22 02:20:26;;;;;;;8.10;4.70;;;;;;;;;;6246309;23;19995;-94
2024/03/22 02:22:51;;;;;;;10.97;5.97;;;;;;;;;;6219485;23;20272;-95
2024/03/22 02:25:16;;;;;;;8.93;5.03;;;;;;;;;;6246688;23;20518;-94
2024/03/22 02:27:41;;;;;;;13.03;5.50;;;;;;;;;;6219942;23;20700;-94
2024/03/22 02:30:07;;;;;;;9.47;4.87;;;;;;;;;;6219561;23;20673;-95
2024/03/22 02:32:32;;;;;;;12.25;4.93;;;;;;;;;;6219647;23;20264;-94
2024/03/22 02:34:57;;;;;;;11.52;6.25;;;;;;;;;;6219905;23;19996;-95
2024/03/22 02:37:22;;;;;;;12.27;5.10;;;;;;;;;;6219548;23;20032;-95
2024/03/22 02:39:47;;;;;;;11.83;5.30;;;;;;;;;;6219792;23;20007;-94
2024/03/22 02:42:13;;;;;;;11.45;5.80;;;;;;;;;;6220011;23;20242;-94
2024/03/22 02:44:42;;;;;;;11.93;7.22;;;;;;;;;;6219674;23;20007;-95
2024/03/22 02:47:07;;;;;;;14.55;6.97;;;;;;;;;;6219861;23;20031;-96
2024/03/22 02:49:33;;;;;;;7.93;4.75;;;;;;;;;;6219705;23;20354;-95
2024/03/22 02:51:58;;;;;;;7.45;5.20;;;;;;;;;;6219788;23;20011;-95
2024/03/22 02:54:23;;;;;;;14.50;5.40;;;;;;;;;;6219189;23;20007;-94
2024/03/22 02:56:48;;;;;;;12.48;4.95;;;;;;;;;;6219531;23;20233;-94
2024/03/22 02:59:13;;;;;;;11.90;5.33;;;;;;;;;;6219190;23;20477;-95
2024/03/22 03:01:39;;;;;;;10.20;4.40;;;;;;;;;;6219434;23;20340;-94
2024/03/22 03:04:04;;;;;;;10.07;4.53;;;;;;;;;;6219116;23;20220;-94
2024/03/22 03:06:29;;;;;;;10.17;4.67;;;;;;;;;;6219322;23;20012;-95
2024/03/22 03:08:54;;;;;;;20.67;4.33;;;;;;;;;;6219218;23;20218;-94
2024/03/22 03:11:20;;;;;;;9.13;3.73;;;;;;;;;;6219049;23;20237;-95
2024/03/22 03:13:45;;;;;;;7.33;3.63;;;;;;;;;;6219373;23;20230;-95
2024/03/22 03:16:10;;;;;;;8.83;4.20;;;;;;;;;;6219171;23;20348;-95
2024/03/22 03:18:35;;;;;;;6.30;3.67;;;;;;;;;;6244940;23;20245;-94
2024/03/22 03:21:00;;;;;;;7.60;4.17;;;;;;;;;;6219496;23;20057;-95
2024/03/22 03:23:26;;;;;;;6.53;4.30;;;;;;;;;;6218983;23;20226;-95
2024/03/22 03:25:51;;;;;;;7.20;4.28;;;;;;;;;;6219018;23;19996;-94
2024/03/22 03:28:16;;;;;;;8.17;4.43;;;;;;;;;;6219015;23;19999;-94
2024/03/22 03:30:41;;;;;;;8.05;4.30;;;;;;;;;;6219263;23;20573;-94
2024/03/22 03:33:07;;;;;;;9.77;5.90;;;;;;;;;;6219057;23;20006;-93
2024/03/22 03:35:32;;;;;;;9.60;5.33;;;;;;;;;;6245486;23;19996;-94
2024/03/22 03:37:57;;;;;;;8.90;5.60;;;;;;;;;;6219209;23;20633;-94
2024/03/22 03:40:24;;;;;;;9.43;4.80;;;;;;;;;;6219147;23;20552;-96
2024/03/22 03:42:50;;;;;;;9.27;5.75;;;;;;;;;;6219026;23;20249;-93
2024/03/22 03:45:15;;;;;;;11.18;6.07;;;;;;;;;;6219006;23;19999;-95
2024/03/22 03:47:40;;;;;;;10.13;5.77;;;;;;;;;;6218776;23;20011;-93
2024/03/22 03:50:05;;;;;;;9.20;5.63;;;;;;;;;;6218998;23;20225;-95
2024/03/22 03:52:30;;;;;;;11.13;6.65;;;;;;;;;;6218841;23;20004;-93
2024/03/22 03:54:56;;;;;;;14.77;5.63;;;;;;;;;;6218834;23;20087;-95
2024/03/22 03:57:21;;;;;;;14.20;7.05;;;;;;;;;;6245605;23;20317;-94
2024/03/22 03:59:46;;;;;;;11.45;6.78;;;;;;;;;;6218843;23;20000;-94
2024/03/22 04:02:11;;;;;;;10.73;6.17;;;;;;;;;;6218771;23;20004;-94
2024/03/22 04:04:36;;;;;;;10.87;6.50;;;;;;;;;;6218476;23;20336;-94
2024/03/22 04:07:02;;;;;;;9.63;5.73;;;;;;;;;;6243619;23;20237;-95
2024/03/22 04:09:27;;;;;;;10.30;6.50;;;;;;;;;;6218910;23;20229;-94
2024/03/22 04:11:52;;;;;;;10.20;6.22;;;;;;;;;;6218933;23;20047;-93
2024/03/22 04:14:18;;;;;;;12.25;6.50;;;;;;;;;;6218675;23;20035;-94
2024/03/22 04:16:43;;;;;;;8.60;6.37;;;;;;;;;;6218808;23;20008;-95
2024/03/22 04:19:08;;;;;;;14.67;6.20;;;;;;;;;;6218346;23;20699;-95
2024/03/22 04:21:33;;;;;;;10.20;6.15;;;;;;;;;;6218922;23;20253;-94
2024/03/22 04:23:58;;;;;;;8.57;5.80;;;;;;;;;;6243725;23;20415;-95
2024/03/22 04:26:24;;;;;;;8.13;5.40;;;;;;;;;;6218508;23;20399;-95
2024/03/22 04:28:49;;;;;;;9.00;5.53;;;;;;;;;;6245363;23;20529;-95
2024/03/22 04:31:15;;;;;;;6.37;5.53;;;;;;;;;;6243743;23;20004;-95
2024/03/22 04:33:40;;;;;;;10.60;5.10;;;;;;;;;;6218499;23;20715;-94
2024/03/22 04:36:06;;;;;;;8.70;5.05;;;;;;;;;;6218064;23;19996;-94
2024/03/22 04:38:31;;;;;;;9.15;4.65;;;;;;;;;;6217995;23;20435;-94
2024/03/22 04:40:57;;;;;;;11.07;5.35;;;;;;;;;;6218550;23;20007;-95
2024/03/22 04:43:23;;;;;;;5.43;4.45;;;;;;;;;;6218898;23;20087;-95
2024/03/22 04:45:49;;;;;;;7.72;4.47;;;;;;;;;;6218032;23;20031;-93
2024/03/22 04:48:14;;;;;;;7.63;5.15;;;;;;;;;;6218404;23;19996;-95
2024/03/22 04:50:40;;;;;;;7.20;4.32;;;;;;;;;;6218469;23;19996;-94
2024/03/22 04:53:05;;;;;;;8.10;4.20;;;;;;;;;;6218439;23;20054;-95
2024/03/22 04:55:31;;;;;;;9.50;4.45;;;;;;;;;;6218441;23;20068;-95
2024/03/22 04:57:56;;;;;;;6.78;4.47;;;;;;;;;;6220050;23;20000;-95
2024/03/22 05:00:21;;;;;;;7.15;4.38;;;;;;;;;;6221461;23;20003;-95
2024/03/22 05:07:52;;;;;;;6.38;3.58;;;;;;;;;;6189294;23;20024;-96
2024/03/22 05:10:17;;;;;;;9.50;3.53;;;;;;;;;;6165683;23;20003;-96
2024/03/22 05:12:43;;;;;;;6.22;4.63;;;;;;;;;;6190630;23;20005;-95
2024/03/22 05:15:08;;;;;;;4.80;3.47;;;;;;;;;;6187207;23;19993;-95
2024/03/22 05:17:33;;;;;;;3.75;2.90;;;;;;;;;;6191380;23;20005;-96
2024/03/22 05:19:59;;;;;;;4.68;2.83;;;;;;;;;;6188604;23;20001;-96
2024/03/22 05:22:24;;;;;;;3.90;2.97;;;;;;;;;;6186644;23;20091;-95
2024/03/22 05:24:49;;;;;;;3.38;2.60;;;;;;;;;;6186453;23;20021;-96
2024/03/22 05:27:15;;;;;;;4.60;2.85;;;;;;;;;;6187390;23;20012;-95
2024/03/22 05:29:40;;;;;;;2.95;2.58;;;;;;;;;;6188137;23;20008;-96
2024/03/22 05:32:05;;;;;;;3.03;2.28;;;;;;;;;;6186318;23;20032;-96
2024/03/22 05:34:31;;;;;;;4.57;2.30;;;;;;;;;;6187296;23;20033;-95
2024/03/22 05:36:56;;;;;;;2.75;2.25;;;;;;;;;;6187299;23;20012;-96
2024/03/22 05:39:21;;;;;;;2.20;1.98;;;;;;;;;;6187301;23;20068;-95
2024/03/22 05:41:46;;;;;;;2.45;1.55;;;;;;;;;;6186788;23;20016;-93
2024/03/22 05:44:11;;;;;;;1.80;1.47;;;;;;;;;;6185570;23;20052;-94
2024/03/22 05:46:37;;;;;;;2.73;1.93;;;;;;;;;;6185605;23;20285;-92
2024/03/22 05:49:02;;;;;;;1.87;1.40;;;;;;;;;;6184148;23;20243;-93
2024/03/22 05:51:27;;;;;;;2.28;1.52;;;;;;;;;;6186338;23;20290;-93
2024/03/22 05:53:53;;;;;;;1.65;1.40;;;;;;;;;;6184642;23;20048;-93
2024/03/22 05:56:18;;;;;;;1.58;1.40;;;;;;;;;;6184382;23;19997;-93
2024/03/22 05:58:43;;;;;;;1.40;1.30;;;;;;;;;;6184419;23;20032;-92
2024/03/22 06:01:09;;;;;;;1.33;1.20;;;;;;;;;;6184659;23;20001;-93
2024/03/22 06:03:34;;;;;;;2.72;1.30;;;;;;;;;;6185015;23;20432;-93
2024/03/22 06:06:00;;;;;;;1.63;1.03;;;;;;;;;;6185771;23;20024;-92
2024/03/22 06:08:25;;;;;;;1.55;1.13;;;;;;;;;;6185467;23;20297;-94
2024/03/22 06:10:52;;;;;;;3.25;0.65;;;;;;;;;;6185598;23;20001;-94
2024/03/22 06:13:17;;;;;;;1.10;1.00;;;;;;;;;;6184278;23;20072;-93
2024/03/22 06:15:45;;;;;;;1.20;0.88;;;;;;;;;;6184431;23;20039;-93
2024/03/22 06:18:10;;;;;;;0.80;0.60;;;;;;;;;;6183831;23;20043;-93
2024/03/22 06:20:36;;;;;;;0.40;0.40;;;;;;;;;;6183951;23;19997;-95
2024/03/22 06:23:01;;;;;;;0.40;0.40;;;;;;;;;;6184094;23;20070;-93
2024/03/22 06:25:26;;;;;;;0.40;0.40;;;;;;;;;;6183851;23;20215;-93
2024/03/22 06:27:52;;;;;;;1.40;0.50;;;;;;;;;;6183416;23;20267;-95
2024/03/22 06:30:17;;;;;;;0.40;0.40;;;;;;;;;;6182983;23;20040;-93
2024/03/22 06:32:42;;;;;;;0.65;0.40;;;;;;;;;;6183702;23;20235;-93
2024/03/22 06:35:07;;;;;;;0.85;0.20;;;;;;;;;;6185255;23;20005;-93
2024/03/22 06:37:33;;;;;;;0.45;0.32;;;;;;;;;;6183492;23;20078;-94
2024/03/22 06:39:58;;;;;;;0.20;0.20;;;;;;;;;;6183821;23;20001;-93
2024/03/22 06:42:23;;;;;;;0.45;0.35;;;;;;;;;;6183246;23;20259;-93
2024/03/22 06:44:49;;;;;;;0.70;0.43;;;;;;;;;;6184193;23;20004;-95
2024/03/22 06:47:14;;;;;;;2.38;1.05;;;;;;;;;;6159512;23;20004;-92
2024/03/22 06:49:41;;;;;;;1.25;0.90;;;;;;;;;;6186272;23;20047;-95
2024/03/22 06:52:07;;;;;;;1.65;1.13;;;;;;;;;;6187055;23;20035;-92
2024/03/22 06:54:35;;;;;;;0.90;0.90;;;;;;;;;;6183656;23;20324;-94
2024/03/22 06:57:00;;;;;;;1.45;1.25;;;;;;;;;;6190150;23;20028;-91
2024/03/22 06:59:26;;;;;;;1.70;1.60;;;;;;;;;;6186217;23;20012;-94
2024/03/22 07:01:51;;;;;;;2.92;1.63;;;;;;;;;;6184494;23;20606;-94
2024/03/22 07:04:17;;;;;;;1.67;1.50;;;;;;;;;;6184284;23;20020;-94
2024/03/22 07:06:42;;;;;;;4.63;2.13;;;;;;;;;;6187155;23;20016;-94
2024/03/22 07:09:07;;;;;;;2.85;1.73;;;;;;;;;;6183837;23;20219;-95
2024/03/22 07:11:33;;;;;;;4.68;1.70;;;;;;;;;;6183700;23;20105;-96
2024/03/22 07:13:58;;;;;;;2.00;1.80;;;;;;;;;;6184272;23;20012;-95
2024/03/22 07:16:23;;;;;;;2.78;1.90;;;;;;;;;;6184073;23;20024;-95
2024/03/22 07:18:48;;;;;;;2.25;1.70;;;;;;;;;;6183838;23;20004;-94
2024/03/22 07:21:14;;;;;;;2.92;1.63;;;;;;;;;;6184916;23;20003;-93
2024/03/22 07:23:39;;;;;;;2.17;1.97;;;;;;;;;;6158827;23;20035;-95
2024/03/22 07:26:05;;;;;;;2.20;2.00;;;;;;;;;;6183555;23;20212;-95
2024/03/22 07:28:31;;;;;;;2.97;2.22;;;;;;;;;;6184689;23;20027;-93
2024/03/22 07:30:56;;;;;;;2.60;2.00;;;;;;;;;;6184015;23;20003;-94
2024/03/22 07:33:21;;;;;;;2.88;2.00;;;;;;;;;;6183834;23;20328;-93
2024/03/22 07:35:47;;;;;;;3.90;1.88;;;;;;;;;;6183894;23;20376;-96
2024/03/22 07:38:12;;;;;;;2.97;2.60;;;;;;;;;;6183361;23;20014;-94
2024/03/22 07:40:37;;;;;;;2.53;1.87;;;;;;;;;;6191272;23;20001;-94
2024/03/22 07:43:05;;;;;;;2.42;1.80;;;;;;;;;;6186487;23;20251;-94
2024/03/22 07:45:31;;;;;;;2.35;1.63;;;;;;;;;;6179200;23;20906;-91
2024/03/22 07:47:56;;;;;;;3.85;1.58;;;;;;;;;;6129956;23;20009;-95
2024/03/22 07:50:22;;;;;;;2.65;1.45;;;;;;;;;;6130132;23;19997;-95
2024/03/22 07:52:47;;;;;;;2.13;1.38;;;;;;;;;;6130155;23;20048;-95
2024/03/22 07:55:12;;;;;;;2.10;1.30;;;;;;;;;;6128915;23;19997;-93
2024/03/22 07:57:38;;;;;;;2.22;1.25;;;;;;;;;;6129117;23;20025;-93
2024/03/22 08:00:04;;;;;;;2.28;1.60;;;;;;;;;;6126924;23;20005;-94
2024/03/22 08:02:29;;;;;;;2.42;1.52;;;;;;;;;;6127998;23;20019;-96
2024/03/22 08:04:55;;;;;;;1.90;1.55;;;;;;;;;;6126859;23;20004;-95
2024/03/22 08:07:20;;;;;;;3.27;1.60;;;;;;;;;;6127655;23;20108;-94
2024/03/22 08:09:45;;;;;;;1.90;1.20;;;;;;;;;;6153014;23;20220;-94
2024/03/22 08:12:10;;;;;;;1.52;1.13;;;;;;;;;;6153189;23;20005;-94
2024/03/22 08:14:36;;;;;;;2.45;1.25;;;;;;;;;;6125684;23;20008;-92
2024/03/22 08:17:09;;;;;;;2.35;0.82;;;;;;;;;;6128834;23;20005;-96
2024/03/22 08:19:34;;;;;;;0.85;0.50;;;;;;;;;;6132389;23;20001;-93
2024/03/22 08:21:59;;;;;;;0.32;0.30;;;;;;;;;;6128860;23;20313;-92
2024/03/22 08:24:24;;;;;;;0.30;0.28;;;;;;;;;;6127633;23;19989;-92
2024/03/22 08:26:50;;;;;;;0.20;0.20;;;;;;;;;;6126109;23;20005;-92
2024/03/22 08:29:15;;;;;;;3.43;0.63;;;;;;;;;;6125719;23;19998;-93
2024/03/22 08:31:41;;;;;;;2.63;0.90;;;;;;;;;;6129035;23;20232;-96
2024/03/22 08:34:07;;;;;;;3.45;0.82;;;;;;;;;;6134863;23;20372;-96
2024/03/22 08:36:32;;;;;;;6.72;1.15;;;;;;;;;;6143202;23;20384;-96
2024/03/22 08:38:57;;;;;;;5.72;0.95;;;;;;;;;;6132951;23;20016;-95
2024/03/22 08:41:23;;;;;;;4.28;1.33;;;;;;;;;;6150651;23;20091;-96
2024/03/22 08:43:48;;;;;;;9.65;1.77;;;;;;;;;;6162627;23;19982;-96
2024/03/22 08:46:14;;;;;;;5.00;0.85;;;;;;;;;;6175649;23;20013;-96
2024/03/22 08:48:39;;;;;;;5.40;1.13;;;;;;;;;;6157602;23;20406;-96
2024/03/22 08:51:04;;;;;;;3.38;1.08;;;;;;;;;;6162758;23;20029;-93
2024/03/22 08:53:32;;;;;;;3.88;0.80;;;;;;;;;;6208285;22;20080;-96
2024/03/22 08:55:58;;;;;;;5.30;1.00;;;;;;;;;;6236884;22;20026;-96
2024/03/22 08:58:23;;;;;;;5.28;0.77;;;;;;;;;;6280367;22;20004;-96
2024/03/22 09:00:49;;;;;;;3.97;0.68;;;;;;;;;;6277948;22;20002;-96
2024/03/22 09:03:18;;;;;;;5.72;0.95;;;;;;;;;;6229785;22;20080;-96
2024/03/22 09:05:43;;;;;;;3.78;1.30;;;;;;;;;;6176224;23;20060;-96
2024/03/22 09:08:09;;;;;;;5.07;1.23;;;;;;;;;;6191822;23;20062;-95
2024/03/22 09:10:34;;;;;;;4.63;0.80;;;;;;;;;;6188825;23;20007;-96
2024/03/22 09:13:00;;;;;;;9.50;1.80;;;;;;;;;;6188930;23;20039;-93
2024/03/22 09:15:25;;;;;;;7.30;1.15;;;;;;;;;;6213221;23;20004;-91
2024/03/22 09:17:51;;;;;;;5.00;1.40;;;;;;;;;;6213441;23;19996;-90
2024/03/22 09:20:16;;;;;;;10.93;2.05;;;;;;;;;;6213617;23;19993;-91
2024/03/22 09:22:42;;;;;;;8.67;1.50;;;;;;;;;;6187003;23;20043;-94
2024/03/22 09:25:07;;;;;;;9.70;1.70;;;;;;;;;;6186825;23;20250;-93
2024/03/22 09:27:32;;;;;;;8.13;1.27;;;;;;;;;;6186556;23;20627;-95
2024/03/22 09:29:58;;;;;;;4.70;1.60;;;;;;;;;;6212977;23;20274;-93
2024/03/22 09:32:23;;;;;;;18.20;2.70;;;;;;;;;;6187837;23;20009;-94
2024/03/22 09:34:49;;;;;;;11.53;1.73;;;;;;;;;;6183543;23;20416;-95
2024/03/22 09:37:15;;;;;;;12.75;2.00;;;;;;;;;;6200618;23;20261;-93
2024/03/22 09:39:40;;;;;;;8.88;1.98;;;;;;;;;;6249851;23;19993;-94
2024/03/22 09:42:06;;;;;;;9.40;2.10;;;;;;;;;;6242240;23;20054;-94
2024/03/22 09:44:32;;;;;;;20.20;3.53;;;;;;;;;;6239237;23;20256;-93
2024/03/22 09:47:00;;;;;;;17.95;3.15;;;;;;;;;;6240204;23;20308;-95
2024/03/22 09:49:26;;;;;;;15.25;2.33;;;;;;;;;;6241719;23;20391;-94
2024/03/22 09:51:52;;;;;;;11.43;1.95;;;;;;;;;;6240040;23;20023;-93
2024/03/22 09:54:23;;;;;;;17.48;2.58;;;;;;;;;;6227594;22;20020;-95
2024/03/22 09:56:49;;;;;;;;;;;;;;;;;;6197345;23;20379;-95
2024/03/22 09:59:14;;;;;;;19.92;2.83;;;;;;;;;;6184499;23;20282;-95
2024/03/22 10:01:39;;;;;;;17.50;3.30;;;;;;;;;;6212436;23;20310;-94
2024/03/22 10:04:09;;;;;;;14.85;3.35;;;;;;;;;;6212624;23;20005;-96
2024/03/22 10:06:34;;;;;;;20.25;3.38;;;;;;;;;;6217185;23;20001;-96
2024/03/22 10:09:00;;;;;;;14.75;2.38;;;;;;;;;;6218334;23;20082;-92
2024/03/22 10:11:28;;;;;;;15.63;2.97;;;;;;;;;;6217160;23;19999;-92
2024/03/22 10:13:55;;;;;;;12.27;2.90;;;;;;;;;;6220948;23;19997;-93
2024/03/22 10:16:21;;;;;;;17.02;2.40;;;;;;;;;;6214424;23;20004;-94
2024/03/22 10:18:48;;;;;;;17.92;3.03;;;;;;;;;;6211331;23;20028;-92
2024/03/22 10:21:18;;;;;;;12.90;2.50;;;;;;;;;;6220054;23;20475;-94
2024/03/22 10:23:44;;;;;;;14.05;3.90;;;;;;;;;;6210515;23;20007;-95
2024/03/22 10:26:10;;;;;;;16.10;3.20;;;;;;;;;;6185425;23;20079;-93
2024/03/22 10:28:35;;;;;;;14.93;2.55;;;;;;;;;;6210780;23;20393;-90
2024/03/22 10:31:01;;;;;;;16.42;3.38;;;;;;;;;;6213020;23;20497;-91
2024/03/22 10:33:28;;;;;;;15.43;3.13;;;;;;;;;;6211315;23;20016;-92
2024/03/22 10:35:53;;;;;;;18.77;3.60;;;;;;;;;;6211379;23;20028;-92
2024/03/22 10:38:20;;;;;;;22.63;3.42;;;;;;;;;;6211500;23;20438;-92
2024/03/22 10:40:46;;;;;;;21.45;4.28;;;;;;;;;;6213774;23;19992;-93
2024/03/22 10:43:11;;;;;;;26.52;3.95;;;;;;;;;;6210362;23;20016;-92
2024/03/22 10:45:46;;;;;;;21.10;3.90;;;;;;;;;;6219934;23;19989;-96
2024/03/22 10:48:15;;;;;;;25.10;3.83;;;;;;;;;;6220948;22;20027;-94
2024/03/22 10:50:44;;;;;;;22.45;4.45;;;;;;;;;;6229736;23;20019;-95
2024/03/22 10:53:13;;;;;;;22.52;3.15;;;;;;;;;;6218053;23;20000;-92
2024/03/22 10:55:40;;;;;;;17.30;3.80;;;;;;;;;;6195052;22;20396;-94
2024/03/22 10:58:08;;;;;;;20.52;4.40;;;;;;;;;;6222809;23;20000;-96
2024/03/22 11:00:34;;;;;;;23.80;3.72;;;;;;;;;;6216680;23;20062;-96
2024/03/22 11:03:02;;;;;;;21.67;3.92;;;;;;;;;;6209260;23;20044;-94
2024/03/22 11:08:04;;;;;;;18.25;3.13;;;;;;;;;;6244444;23;19923;-91
2024/03/22 11:10:31;;;;;;;16.52;3.92;;;;;;;;;;6243521;23;20014;-91
2024/03/22 11:13:00;;;;;;;22.75;3.45;;;;;;;;;;6241741;23;20039;-92
2024/03/22 11:15:25;;;;;;;16.27;3.55;;;;;;;;;;6216278;23;20015;-93
2024/03/22 11:17:50;;;;;;;24.40;4.25;;;;;;;;;;6240117;23;20390;-91
2024/03/22 11:20:16;;;;;;;22.00;3.13;;;;;;;;;;6240687;23;20007;-92
2024/03/22 11:22:41;;;;;;;27.73;4.80;;;;;;;;;;6240893;22;20272;-91
2024/03/22 11:25:07;;;;;;;20.05;4.25;;;;;;;;;;6243324;23;20016;-93
2024/03/22 11:27:32;;;;;;;17.70;3.50;;;;;;;;;;6240584;23;20038;-93
2024/03/22 11:29:57;;;;;;;22.73;4.50;;;;;;;;;;6242002;22;20066;-92
2024/03/22 11:32:23;;;;;;;16.10;3.53;;;;;;;;;;6241219;23;20007;-94
2024/03/22 11:34:48;;;;;;;23.85;4.28;;;;;;;;;;6242357;22;20218;-95
2024/03/22 11:37:13;;;;;;;22.67;4.30;;;;;;;;;;6241609;22;20000;-94
2024/03/22 11:39:38;;;;;;;23.77;6.03;;;;;;;;;;6243363;23;20359;-94
2024/03/22 11:42:04;;;;;;;24.67;3.23;;;;;;;;;;6241266;23;20022;-94
2024/03/22 11:44:30;;;;;;;21.73;4.72;;;;;;;;;;6239421;23;20217;-93
2024/03/22 11:46:56;;;;;;;16.27;3.83;;;;;;;;;;6242701;22;20004;-92
2024/03/22 11:49:21;;;;;;;31.67;4.37;;;;;;;;;;6239978;23;20431;-91
2024/03/22 11:51:46;;;;;;;23.73;3.78;;;;;;;;;;6237866;22;20226;-92
2024/03/22 11:54:11;;;;;;;18.63;4.33;;;;;;;;;;6235903;23;19996;-92
2024/03/22 11:56:37;;;;;;;29.37;4.33;;;;;;;;;;6234957;23;20234;-93
2024/03/22 11:59:03;;;;;;;26.45;4.00;;;;;;;;;;6234559;23;20218;-95
2024/03/22 12:01:29;;;;;;;26.02;4.70;;;;;;;;;;6239179;22;20008;-92
2024/03/22 12:03:54;;;;;;;23.00;3.63;;;;;;;;;;6240225;22;20000;-91
2024/03/22 12:06:20;;;;;;;15.75;3.72;;;;;;;;;;6237511;23;20386;-92
2024/03/22 12:08:45;;;;;;;20.83;7.05;;;;;;;;;;6238927;22;20000;-92
2024/03/22 12:11:10;;;;;;;31.47;10.23;;;;;;;;;;6236906;23;20043;-91
2024/03/22 12:13:36;;;;;;;22.85;5.35;;;;;;;;;;6237916;23;20230;-94
2024/03/22 12:16:03;;;;;;;21.25;4.00;;;;;;;;;;6238280;22;20000;-93
2024/03/22 12:18:28;;;;;;;23.38;4.20;;;;;;;;;;6237343;23;20000;-92
2024/03/22 12:20:54;;;;;;;27.77;5.57;;;;;;;;;;6237515;23;20007;-91
2024/03/22 12:23:19;;;;;;;23.42;7.95;;;;;;;;;;6238808;23;20015;-92
2024/03/22 12:25:44;;;;;;;20.57;3.70;;;;;;;;;;6238953;23;19993;-91
2024/03/22 12:28:09;;;;;;;26.90;4.77;;;;;;;;;;6241161;23;20234;-91
2024/03/22 12:30:34;;;;;;;20.00;3.60;;;;;;;;;;6238886;23;20217;-91
2024/03/22 12:33:00;;;;;;;23.57;4.27;;;;;;;;;;6238824;23;20224;-89
2024/03/22 12:35:26;;;;;;;26.38;4.68;;;;;;;;;;6238819;22;20232;-89
2024/03/22 12:37:51;;;;;;;25.13;4.93;;;;;;;;;;6239018;23;20327;-90
2024/03/22 12:40:16;;;;;;;24.10;5.17;;;;;;;;;;6239782;23;20239;-90
2024/03/22 12:42:41;;;;;;;20.40;3.60;;;;;;;;;;6238671;23;20838;-89
2024/03/22 12:45:07;;;;;;;22.53;3.50;;;;;;;;;;6237366;23;20000;-90
2024/03/22 12:47:32;;;;;;;24.20;4.40;;;;;;;;;;6238554;22;20322;-94
2024/03/22 12:49:58;;;;;;;28.65;4.25;;;;;;;;;;6239385;23;20007;-92
2024/03/22 12:52:23;;;;;;;22.23;4.45;;;;;;;;;;6242762;23;20062;-94
2024/03/22 12:54:48;;;;;;;27.30;4.20;;;;;;;;;;6242272;23;20003;-92
2024/03/22 12:57:14;;;;;;;17.02;3.70;;;;;;;;;;6246676;22;20363;-93
2024/03/22 12:59:39;;;;;;;16.75;2.90;;;;;;;;;;6237702;22;20004;-96
2024/03/22 13:02:04;;;;;;;15.30;3.25;;;;;;;;;;6239258;23;20031;-91
2024/03/22 13:04:30;;;;;;;15.10;2.42;;;;;;;;;;6239054;23;20004;-90
2024/03/22 13:06:55;;;;;;;15.00;2.47;;;;;;;;;;6236376;23;20435;-92
2024/03/22 13:09:21;;;;;;;16.65;3.30;;;;;;;;;;6236355;23;20684;-93
2024/03/22 13:11:47;;;;;;;18.92;3.08;;;;;;;;;;6238881;23;20024;-93
2024/03/22 13:14:12;;;;;;;19.25;2.70;;;;;;;;;;6234402;23;20056;-95
2024/03/22 13:16:37;;;;;;;15.38;2.67;;;;;;;;;;6240649;23;20026;-94
2024/03/22 13:19:03;;;;;;;16.83;2.90;;;;;;;;;;6240724;22;20074;-95
2024/03/22 13:21:30;;;;;;;12.65;2.35;;;;;;;;;;6243720;23;20019;-94
2024/03/22 13:23:56;;;;;;;15.40;2.40;;;;;;;;;;6241031;23;20033;-93
2024/03/22 13:26:21;;;;;;;14.82;2.47;;;;;;;;;;6238953;23;19992;-93
2024/03/22 13:28:46;;;;;;;15.40;3.20;;;;;;;;;;6245440;23;20031;-92
2024/03/22 13:31:11;;;;;;;12.13;2.42;;;;;;;;;;6253428;22;20241;-93
2024/03/22 13:33:37;;;;;;;15.57;2.93;;;;;;;;;;6242342;23;20422;-95
2024/03/22 13:36:02;;;;;;;16.58;2.10;;;;;;;;;;6243832;23;20264;-92
2024/03/22 13:38:30;;;;;;;15.15;2.88;;;;;;;;;;6245472;22;20023;-95
2024/03/22 13:40:57;;;;;;;13.15;2.70;;;;;;;;;;6241539;23;20000;-93
2024/03/22 13:43:22;;;;;;;12.50;2.55;;;;;;;;;;6242199;22;20012;-92
2024/03/22 13:45:53;;;;;;;18.45;2.90;;;;;;;;;;6260025;22;19999;-95
2024/03/22 13:48:19;;;;;;;11.93;2.27;;;;;;;;;;6264195;22;20011;-96
2024/03/22 13:50:51;;;;;;;14.02;2.97;;;;;;;;;;6257386;22;20241;-96
2024/03/22 13:53:16;;;;;;;18.40;2.58;;;;;;;;;;6229141;23;20454;-96
2024/03/22 13:55:42;;;;;;;16.00;2.83;;;;;;;;;;6256652;22;19996;-96
2024/03/22 13:58:08;;;;;;;16.63;3.33;;;;;;;;;;6256820;23;20008;-95
2024/03/22 14:00:33;;;;;;;12.98;2.78;;;;;;;;;;6242914;23;20035;-92
2024/03/22 14:02:58;;;;;;;13.52;2.72;;;;;;;;;;6243073;23;20016;-96
2024/03/22 14:05:24;;;;;;;10.02;2.15;;;;;;;;;;6242170;23;20075;-93
2024/03/22 14:07:49;;;;;;;14.38;2.75;;;;;;;;;;6241967;23;20016;-92
2024/03/22 14:10:15;;;;;;;14.65;2.97;;;;;;;;;;6241751;23;20498;-92
2024/03/22 14:12:41;;;;;;;17.95;2.90;;;;;;;;;;6240965;23;20045;-91
2024/03/22 14:15:06;;;;;;;19.63;3.55;;;;;;;;;;6243022;22;20067;-93
2024/03/22 14:17:32;;;;;;;12.50;2.28;;;;;;;;;;6241518;23;20007;-92
2024/03/22 14:19:58;;;;;;;10.07;1.88;;;;;;;;;;6241649;23;20003;-91
2024/03/22 14:22:23;;;;;;;12.18;2.45;;;;;;;;;;6243797;23;20008;-92
2024/03/22 14:24:48;;;;;;;13.18;2.10;;;;;;;;;;6242803;23;19992;-91
2024/03/22 14:27:14;;;;;;;6.20;1.27;;;;;;;;;;6242795;23;20079;-92
2024/03/22 14:29:39;;;;;;;13.00;1.85;;;;;;;;;;6243760;22;20242;-96
2024/03/22 14:32:07;;;;;;;16.38;2.92;;;;;;;;;;6244454;22;20012;-95
2024/03/22 14:34:32;;;;;;;9.30;2.15;;;;;;;;;;6245863;23;19997;-95
2024/03/22 14:36:57;;;;;;;10.57;2.10;;;;;;;;;;6246202;23;20015;-96